createdAt,value
2022-08-22T00:01:10.822Z,59.60
2022-08-22T00:02:59.810Z,58.00
2022-08-22T00:04:21.562Z,59.70
2022-08-22T00:07:26.491Z,59.70
2022-08-22T00:10:32.510Z,59.80
2022-08-22T00:13:36.639Z,59.60
2022-08-22T00:16:41.401Z,59.80
2022-08-22T00:19:47.040Z,59.70
2022-08-22T00:22:51.470Z,59.70
2022-08-22T00:25:58.330Z,59.90
2022-08-22T00:29:02.010Z,59.90
2022-08-22T00:32:07.129Z,59.80
2022-08-22T00:35:14.768Z,59.80
2022-08-22T00:38:18.996Z,60.00
2022-08-22T00:41:30.495Z,59.90
2022-08-22T00:44:43.603Z,59.80
2022-08-22T00:47:54.907Z,59.80
2022-08-22T00:51:04.537Z,59.80
2022-08-22T00:54:16.768Z,59.90
2022-08-22T00:57:29.596Z,60.00
2022-08-22T01:00:35.914Z,60.00
2022-08-22T01:03:49.545Z,60.00
2022-08-22T01:07:01.585Z,60.10
2022-08-22T01:10:13.763Z,60.00
2022-08-22T01:13:23.595Z,60.00
2022-08-22T01:16:30.126Z,59.90
2022-08-22T01:19:46.377Z,60.10
2022-08-22T01:23:05.313Z,59.90
2022-08-22T01:26:22.493Z,60.10
2022-08-22T01:29:40.374Z,60.00
2022-08-22T01:32:57.288Z,59.90
2022-08-22T01:36:09.196Z,60.20
2022-08-22T01:39:27.852Z,60.20
2022-08-22T01:42:36.906Z,60.00
2022-08-22T01:45:49.063Z,60.30
2022-08-22T01:48:52.752Z,60.00
2022-08-22T01:51:58.074Z,60.20
2022-08-22T01:55:01.610Z,60.00
2022-08-22T01:58:12.781Z,60.00
2022-08-22T02:01:19.774Z,60.10
2022-08-22T02:04:29.061Z,60.10
2022-08-22T02:07:32.118Z,60.10
2022-08-22T02:10:47.349Z,60.10
2022-08-22T02:13:52.308Z,60.20
2022-08-22T02:16:56.598Z,60.30
2022-08-22T02:20:01.348Z,60.20
2022-08-22T02:23:06.804Z,60.30
2022-08-22T02:26:11.428Z,60.10
2022-08-22T02:29:15.447Z,60.30
2022-08-22T02:32:19.546Z,60.20
2022-08-22T02:35:25.475Z,60.40
2022-08-22T02:38:28.977Z,60.30
2022-08-22T02:41:43.545Z,60.20
2022-08-22T02:44:50.205Z,60.50
2022-08-22T02:47:56.345Z,60.40
2022-08-22T02:51:00.515Z,60.30
2022-08-22T02:54:07.435Z,60.30
2022-08-22T02:57:14.118Z,60.40
2022-08-22T03:00:29.643Z,60.30
2022-08-22T03:03:37.503Z,60.30
2022-08-22T03:06:44.614Z,60.40
2022-08-22T03:09:48.163Z,60.20
2022-08-22T03:13:00.312Z,60.50
2022-08-22T03:16:06.071Z,60.50
2022-08-22T03:19:18.320Z,60.20
2022-08-22T03:22:24.914Z,60.30
2022-08-22T03:25:30.241Z,60.50
2022-08-22T03:28:36.410Z,60.40
2022-08-22T03:31:48.540Z,60.50
2022-08-22T03:34:53.931Z,60.40
2022-08-22T03:38:00.698Z,60.60
2022-08-22T03:41:08.839Z,60.30
2022-08-22T03:44:23.502Z,60.30
2022-08-22T03:47:35.730Z,60.60
2022-08-22T03:50:48.799Z,60.50
2022-08-22T03:53:57.669Z,60.50
2022-08-22T03:57:14.019Z,60.50
2022-08-22T04:00:20.898Z,60.50
2022-08-22T04:03:35.837Z,60.60
2022-08-22T04:06:49.857Z,60.40
2022-08-22T04:10:08.507Z,61.00
2022-08-22T04:13:20.556Z,60.60
2022-08-22T04:16:36.216Z,60.70
2022-08-22T04:19:52.507Z,60.40
2022-08-22T04:23:04.956Z,60.50
2022-08-22T04:26:12.448Z,60.50
2022-08-22T04:29:19.297Z,60.60
2022-08-22T04:32:24.437Z,60.50
2022-08-22T04:35:29.116Z,60.40
2022-08-22T04:38:37.725Z,60.70
2022-08-22T04:41:47.353Z,60.60
2022-08-22T04:44:53.043Z,60.60
2022-08-22T04:47:59.422Z,60.50
2022-08-22T04:51:07.495Z,60.60
2022-08-22T04:54:29.383Z,60.80
2022-08-22T04:57:35.474Z,60.70
2022-08-22T05:00:40.373Z,60.70
2022-08-22T05:03:45.431Z,60.70
2022-08-22T05:06:50.006Z,60.60
2022-08-22T05:09:53.682Z,60.60
2022-08-22T05:12:59.631Z,60.80
2022-08-22T05:16:04.407Z,60.70
2022-08-22T05:19:09.107Z,60.80
2022-08-22T05:22:18.940Z,60.70
2022-08-22T05:25:21.789Z,60.70
2022-08-22T05:28:27.689Z,60.70
2022-08-22T05:31:31.187Z,60.70
2022-08-22T05:34:33.852Z,60.70
2022-08-22T05:37:37.893Z,60.80
2022-08-22T05:40:40.138Z,60.80
2022-08-22T05:43:42.757Z,60.90
2022-08-22T05:46:45.967Z,60.90
2022-08-22T05:49:52.568Z,60.80
2022-08-22T05:53:00.786Z,60.70
2022-08-22T05:56:04.820Z,60.90
2022-08-22T05:59:12.505Z,60.80
2022-08-22T06:02:22.826Z,60.80
2022-08-22T06:05:25.936Z,60.80
2022-08-22T06:08:33.537Z,60.90
2022-08-22T06:11:38.909Z,60.90
2022-08-22T06:14:44.684Z,60.80
2022-08-22T06:17:47.096Z,60.90
2022-08-22T06:20:49.524Z,60.80
2022-08-22T06:23:55.913Z,60.80
2022-08-22T06:26:58.964Z,60.90
2022-08-22T06:30:01.163Z,60.90
2022-08-22T06:33:06.317Z,61.00
2022-08-22T06:36:24.922Z,60.80
2022-08-22T06:39:30.602Z,61.00
2022-08-22T06:42:33.083Z,61.00
2022-08-22T06:45:35.542Z,60.90
2022-08-22T06:48:37.381Z,61.00
2022-08-22T06:51:39.342Z,60.90
2022-08-22T06:54:45.452Z,61.10
2022-08-22T06:57:51.370Z,60.90
2022-08-22T07:01:05.181Z,61.60
2022-08-22T07:04:13.779Z,61.00
2022-08-22T07:07:17.124Z,60.90
2022-08-22T07:10:21.095Z,61.00
2022-08-22T07:13:24.586Z,61.30
2022-08-22T07:16:28.980Z,61.10
2022-08-22T07:19:31.791Z,61.00
2022-08-22T07:22:34.584Z,60.80
2022-08-22T07:25:44.373Z,61.00
2022-08-22T07:28:50.781Z,61.10
2022-08-22T07:31:56.726Z,60.90
2022-08-22T07:35:06.550Z,61.00
2022-08-22T07:38:13.407Z,61.00
2022-08-22T07:41:16.282Z,60.90
2022-08-22T07:44:19.766Z,61.00
2022-08-22T07:47:26.133Z,61.00
2022-08-22T07:50:29.616Z,60.70
2022-08-22T07:53:36.429Z,60.80
2022-08-22T07:56:42.025Z,61.00
2022-08-22T07:59:47.858Z,60.70
2022-08-22T08:02:50.971Z,60.80
2022-08-22T08:05:53.275Z,60.90
2022-08-22T08:08:55.255Z,60.80
2022-08-22T08:11:58.606Z,60.90
2022-08-22T08:15:01.452Z,61.00
2022-08-22T08:18:05.052Z,60.90
2022-08-22T08:21:07.761Z,60.70
2022-08-22T08:24:12.657Z,61.00
2022-08-22T08:27:29.482Z,60.90
2022-08-22T08:30:36.044Z,60.80
2022-08-22T08:33:40.023Z,61.00
2022-08-22T08:36:47.530Z,60.90
2022-08-22T08:39:50.312Z,60.50
2022-08-22T08:43:14.969Z,61.00
2022-08-22T08:46:26.391Z,61.10
2022-08-22T08:49:35.678Z,61.20
2022-08-22T08:52:58.478Z,61.10
2022-08-22T08:56:03.812Z,60.90
2022-08-22T08:59:10.490Z,61.00
2022-08-22T09:02:23.649Z,60.70
2022-08-22T09:05:41.237Z,60.90
2022-08-22T09:08:55.781Z,61.00
2022-08-22T09:12:09.996Z,60.80
2022-08-22T09:15:20.674Z,60.90
2022-08-22T09:18:29.216Z,60.80
2022-08-22T09:21:44.626Z,60.80
2022-08-22T09:24:51.914Z,60.80
2022-08-22T09:27:58.682Z,60.90
2022-08-22T09:31:17.103Z,60.90
2022-08-22T09:34:32.611Z,61.00
2022-08-22T09:37:40.406Z,60.90
2022-08-22T09:40:47.528Z,60.80
2022-08-22T09:43:57.052Z,60.90
2022-08-22T09:47:06.871Z,61.00
2022-08-22T09:50:13.154Z,61.50
2022-08-22T09:53:25.344Z,60.90
2022-08-22T09:56:35.731Z,61.00
2022-08-22T09:59:47.063Z,61.00
2022-08-22T10:02:52.860Z,60.90
2022-08-22T10:05:57.631Z,61.00
2022-08-22T10:09:02.545Z,61.00
2022-08-22T10:12:06.249Z,61.20
2022-08-22T10:15:18.523Z,61.30
2022-08-22T10:18:24.692Z,61.20
2022-08-22T10:21:36.785Z,61.20
2022-08-22T10:24:44.023Z,61.20
2022-08-22T10:27:52.987Z,61.30
2022-08-22T10:31:12.790Z,61.30
2022-08-22T10:34:17.526Z,61.30
2022-08-22T10:37:23.793Z,61.10
2022-08-22T10:40:28.333Z,61.30
2022-08-22T10:43:34.286Z,61.40
2022-08-22T10:46:38.135Z,61.30
2022-08-22T10:49:45.575Z,61.40
2022-08-22T10:52:48.965Z,61.40
2022-08-22T10:55:53.930Z,61.30
2022-08-22T10:59:02.532Z,61.50
2022-08-22T11:02:18.346Z,61.40
2022-08-22T11:05:24.988Z,61.70
2022-08-22T11:08:33.093Z,61.40
2022-08-22T11:11:38.645Z,61.60
2022-08-22T11:14:50.514Z,61.50
2022-08-22T11:18:13.003Z,61.70
2022-08-22T11:21:19.969Z,61.50
2022-08-22T11:24:54.037Z,61.60
2022-08-22T11:28:04.602Z,61.40
2022-08-22T11:31:09.658Z,61.60
2022-08-22T11:34:15.865Z,61.60
2022-08-22T11:37:42.944Z,61.50
2022-08-22T11:40:49.685Z,61.50
2022-08-22T11:43:55.733Z,61.40
2022-08-22T11:46:58.500Z,61.40
2022-08-22T11:50:02.130Z,61.30
2022-08-22T11:53:12.429Z,61.50
2022-08-22T11:56:20.352Z,61.50
2022-08-22T11:59:29.260Z,61.40
2022-08-22T12:02:49.572Z,61.40
2022-08-22T12:05:54.278Z,61.50
2022-08-22T12:09:07.758Z,61.40
2022-08-22T12:12:18.562Z,61.30
2022-08-22T12:15:24.479Z,61.40
2022-08-22T12:18:37.379Z,62.10
2022-08-22T12:21:56.978Z,61.30
2022-08-22T12:25:06.447Z,61.20
2022-08-22T12:28:13.915Z,61.30
2022-08-22T12:31:26.112Z,61.50
2022-08-22T12:34:32.015Z,61.50
2022-08-22T12:37:52.213Z,61.00
2022-08-22T12:41:07.889Z,61.40
2022-08-22T12:44:17.495Z,61.40
2022-08-22T12:47:27.364Z,61.20
2022-08-22T12:50:34.055Z,61.30
2022-08-22T12:53:48.635Z,61.30
2022-08-22T12:56:55.064Z,61.50
2022-08-22T12:59:59.634Z,61.30
2022-08-22T13:03:06.805Z,61.30
2022-08-22T13:06:25.783Z,61.40
2022-08-22T13:09:30.709Z,61.30
2022-08-22T13:12:36.063Z,61.40
2022-08-22T13:15:44.572Z,61.20
2022-08-22T13:18:53.524Z,61.30
2022-08-22T13:21:58.491Z,61.20
2022-08-22T13:25:02.103Z,61.20
2022-08-22T13:28:10.701Z,61.10
2022-08-22T13:31:19.573Z,61.20
2022-08-22T13:34:27.480Z,60.90
2022-08-22T13:37:30.890Z,61.10
2022-08-22T13:40:33.120Z,61.40
2022-08-22T13:43:37.021Z,61.10
2022-08-22T13:46:52.970Z,61.20
2022-08-22T13:50:06.621Z,61.00
2022-08-22T13:53:11.473Z,61.10
2022-08-22T13:56:18.408Z,61.70
2022-08-22T13:59:40.399Z,61.00
2022-08-22T14:02:52.442Z,61.00
2022-08-22T14:05:58.968Z,61.00
2022-08-22T14:09:31.812Z,61.00
2022-08-22T14:12:50.916Z,61.00
2022-08-22T14:15:57.936Z,61.00
2022-08-22T14:19:06.222Z,61.00
2022-08-22T14:22:14.379Z,61.00
2022-08-22T14:25:17.888Z,60.90
2022-08-22T14:28:22.200Z,60.90
2022-08-22T14:31:29.606Z,60.90
2022-08-22T14:34:33.386Z,61.10
2022-08-22T14:37:38.796Z,60.90
2022-08-22T14:40:41.648Z,60.90
2022-08-22T14:43:48.479Z,61.00
2022-08-22T14:46:52.968Z,60.90
2022-08-22T14:49:55.766Z,60.90
2022-08-22T14:53:04.567Z,61.00
2022-08-22T14:56:09.103Z,61.00
2022-08-22T14:59:14.885Z,61.10
2022-08-22T15:02:22.963Z,61.00
2022-08-22T15:05:26.012Z,61.20
2022-08-22T15:08:32.285Z,61.00
2022-08-22T15:11:33.991Z,61.20
2022-08-22T15:14:44.988Z,60.90
2022-08-22T15:17:54.377Z,61.00
2022-08-22T15:21:00.232Z,61.20
2022-08-22T15:24:05.621Z,60.90
2022-08-22T15:27:08.038Z,61.00
2022-08-22T15:30:18.796Z,61.00
2022-08-22T15:33:24.210Z,61.20
2022-08-22T15:36:26.306Z,61.00
2022-08-22T15:39:30.779Z,60.90
2022-08-22T15:42:34.109Z,61.10
2022-08-22T15:45:37.219Z,61.00
2022-08-22T15:48:41.028Z,60.90
2022-08-22T15:51:45.875Z,61.10
2022-08-22T15:55:04.608Z,61.10
2022-08-22T15:58:08.388Z,60.80
2022-08-22T16:01:19.172Z,61.00
2022-08-22T16:04:31.363Z,61.10
2022-08-22T16:07:34.725Z,61.70
2022-08-22T16:10:39.115Z,61.20
2022-08-22T16:13:42.168Z,61.10
2022-08-22T16:16:54.065Z,61.40
2022-08-22T16:20:19.674Z,61.20
2022-08-22T16:23:21.794Z,61.10
2022-08-22T16:26:24.404Z,61.30
2022-08-22T16:29:37.646Z,61.20
2022-08-22T16:32:51.275Z,61.20
2022-08-22T16:36:07.442Z,61.20
2022-08-22T16:39:11.292Z,61.30
2022-08-22T16:42:23.935Z,61.50
2022-08-22T16:45:31.572Z,61.40
2022-08-22T16:48:34.684Z,61.50
2022-08-22T16:51:56.615Z,61.40
2022-08-22T16:54:59.540Z,61.40
2022-08-22T16:58:06.957Z,61.40
2022-08-22T17:01:11.647Z,61.50
2022-08-22T17:04:19.530Z,61.50
2022-08-22T17:07:27.341Z,61.60
2022-08-22T17:10:36.863Z,61.30
2022-08-22T17:13:55.828Z,61.60
2022-08-22T17:17:03.856Z,61.50
2022-08-22T17:20:11.179Z,61.70
2022-08-22T17:23:16.708Z,61.70
2022-08-22T17:26:21.729Z,61.80
2022-08-22T17:29:30.558Z,61.80
2022-08-22T17:32:34.243Z,62.00
2022-08-22T17:35:42.811Z,61.80
2022-08-22T17:38:48.966Z,61.90
2022-08-22T17:41:53.830Z,62.00
2022-08-22T17:45:02.576Z,62.20
2022-08-22T17:48:05.910Z,62.10
2022-08-22T17:51:12.460Z,62.10
2022-08-22T17:54:15.865Z,62.10
2022-08-22T17:57:24.875Z,62.20
2022-08-22T18:00:29.794Z,62.10
2022-08-22T18:03:33.485Z,62.20
2022-08-22T18:06:36.844Z,62.10
2022-08-22T18:09:40.433Z,62.50
2022-08-22T18:12:45.203Z,62.60
2022-08-22T18:15:50.543Z,62.50
2022-08-22T18:18:55.512Z,62.30
2022-08-22T18:21:58.813Z,62.50
2022-08-22T18:25:02.867Z,62.40
2022-08-22T18:28:09.262Z,62.50
2022-08-22T18:31:18.972Z,62.60
2022-08-22T18:34:24.746Z,62.70
2022-08-22T18:37:41.063Z,62.60
2022-08-22T18:40:46.819Z,63.00
2022-08-22T18:43:51.931Z,62.70
2022-08-22T18:46:57.171Z,62.60
2022-08-22T18:50:00.121Z,62.50
2022-08-22T18:53:02.795Z,62.60
2022-08-22T18:56:09.660Z,62.70
2022-08-22T18:59:20.709Z,62.90
2022-08-22T19:02:34.010Z,62.70
2022-08-22T19:05:44.144Z,62.80
2022-08-22T19:08:53.796Z,62.90
2022-08-22T19:12:02.209Z,62.90
2022-08-22T19:15:12.099Z,62.70
2022-08-22T19:18:22.980Z,62.90
2022-08-22T19:21:39.942Z,62.90
2022-08-22T19:24:56.097Z,63.00
2022-08-22T19:28:12.317Z,62.90
2022-08-22T19:31:23.171Z,63.00
2022-08-22T19:34:39.347Z,63.00
2022-08-22T19:37:50.386Z,63.90
2022-08-22T19:40:54.695Z,63.20
2022-08-22T19:43:56.346Z,62.90
2022-08-22T19:47:01.757Z,63.00
2022-08-22T19:50:08.201Z,63.20
2022-08-22T19:53:17.605Z,63.10
2022-08-22T19:56:25.074Z,63.20
2022-08-22T19:59:33.785Z,63.10
2022-08-22T20:02:39.330Z,63.20
2022-08-22T20:05:46.203Z,63.50
2022-08-22T20:09:07.323Z,63.20
2022-08-22T20:12:15.459Z,63.30
2022-08-22T20:15:18.300Z,63.30
2022-08-22T20:19:00.137Z,63.40
2022-08-22T20:21:58.242Z,63.40
2022-08-22T20:25:02.060Z,63.40
2022-08-22T20:28:04.802Z,63.40
2022-08-22T20:31:08.923Z,63.30
2022-08-22T20:34:12.653Z,63.50
2022-08-22T20:40:57.084Z,63.60
2022-08-22T20:44:02.030Z,63.50
2022-08-22T20:47:06.341Z,63.60
2022-08-22T20:50:11.103Z,63.70
2022-08-22T20:53:19.053Z,63.50
2022-08-22T20:56:30.300Z,63.50
2022-08-22T20:59:34.929Z,63.80
2022-08-22T21:02:38.300Z,63.60
2022-08-22T21:05:40.948Z,63.60
2022-08-22T21:08:43.642Z,63.50
2022-08-22T21:11:49.272Z,63.60
2022-08-22T21:14:50.816Z,63.70
2022-08-22T21:17:52.632Z,63.90
2022-08-22T21:20:54.405Z,63.80
2022-08-22T21:24:01.382Z,63.80
2022-08-22T21:27:03.175Z,63.60
2022-08-22T21:30:08.753Z,63.70
2022-08-22T21:33:14.256Z,63.60
2022-08-22T21:36:27.875Z,63.70
2022-08-22T21:39:33.984Z,63.60
2022-08-22T21:42:36.623Z,63.60
2022-08-22T21:45:40.890Z,63.70
2022-08-22T21:48:43.368Z,63.60
2022-08-22T21:51:45.535Z,63.50
2022-08-22T21:54:50.614Z,63.70
2022-08-22T21:58:06.771Z,63.60
2022-08-22T22:01:20.439Z,63.80
2022-08-22T22:04:26.299Z,63.60
2022-08-22T22:07:28.131Z,63.50
2022-08-22T22:10:30.861Z,63.80
2022-08-22T22:13:32.245Z,63.70
2022-08-22T22:16:33.843Z,63.60
2022-08-22T22:19:35.732Z,63.60
2022-08-22T22:22:46.283Z,63.80
2022-08-22T22:25:52.610Z,63.80
2022-08-22T22:28:53.979Z,63.70
2022-08-22T22:31:55.449Z,63.80
2022-08-22T22:34:56.738Z,63.80
2022-08-22T22:37:58.087Z,63.70
2022-08-22T22:40:59.977Z,63.80
2022-08-22T22:44:03.417Z,63.80
2022-08-22T22:47:05.083Z,64.00
2022-08-22T22:50:06.678Z,64.10
2022-08-22T22:53:08.110Z,63.80
2022-08-22T22:56:13.808Z,63.90
2022-08-22T22:59:15.096Z,63.90
2022-08-22T23:02:20.587Z,64.10
2022-08-22T23:05:22.135Z,63.80
2022-08-22T23:08:23.405Z,64.00
2022-08-22T23:11:26.503Z,64.10
2022-08-22T23:14:28.014Z,64.10
2022-08-22T23:17:29.384Z,64.10
2022-08-22T23:20:30.714Z,64.10
2022-08-22T23:23:32.053Z,64.10
2022-08-22T23:26:34.046Z,64.10
2022-08-22T23:29:40.042Z,64.10
2022-08-22T23:32:44.442Z,64.10
2022-08-22T23:35:45.782Z,64.20
2022-08-22T23:38:47.421Z,64.10
2022-08-22T23:41:49.992Z,64.20
2022-08-22T23:44:54.482Z,64.20
2022-08-22T23:47:55.788Z,64.30
2022-08-22T23:50:57.170Z,64.30
2022-08-22T23:53:59.061Z,64.20
2022-08-22T23:57:02.300Z,64.30
